Box Elder, Montana
Current Conditions -  °F | °C
As of 9:53 AM on Friday 24 Oct 2014 (Local Time) from KHVR Reporting Station
Clear Clear  
Wind Chill: 53°   Ceiling: Unl
Heat Index: 53°   Visibility: 10mi
Dew Point: 32°   Wind: 18mph
Humidity: 45%   Direction: 250°WSW
Pressure: 29.99"   Gusts: 22mph
Location:  48.32°N, 110.01°W
Report Text: KHVR 241553Z AUTO 25016G19KT 10SM CLR 12/00 A2999 RMK AO2 SLP156 T01170000 $
Loading
Personal Weather Stations






























Interactive Weather Map
Tropical Storm Tracking
New forecast layout! Learn more

10-Day Weather Forecast

Advertisements
Track Severe Weather on mobile